sensor_id;sensor_type;location;lat;lon;timestamp;temperature;humidity
18884;DHT22;9574;47.282;9.640;2022-10-26T00:00:10;14.20;99.90
18884;DHT22;9574;47.282;9.640;2022-10-26T00:02:37;14.20;99.90
18884;DHT22;9574;47.282;9.640;2022-10-26T00:05:04;14.10;99.90
18884;DHT22;9574;47.282;9.640;2022-10-26T00:07:31;14.00;99.90
18884;DHT22;9574;47.282;9.640;2022-10-26T00:09:58;14.00;99.90
18884;DHT22;9574;47.282;9.640;2022-10-26T00:12:25;14.00;99.90
18884;DHT22;9574;47.282;9.640;2022-10-26T00:14:54;14.10;99.90
18884;DHT22;9574;47.282;9.640;2022-10-26T00:17:21;13.90;99.90
18884;DHT22;9574;47.282;9.640;2022-10-26T00:19:48;13.80;99.90
18884;DHT22;9574;47.282;9.640;2022-10-26T00:22:15;13.90;99.90
18884;DHT22;9574;47.282;9.640;2022-10-26T00:24:42;13.90;99.90
18884;DHT22;9574;47.282;9.640;2022-10-26T00:27:09;13.80;99.90
18884;DHT22;9574;47.282;9.640;2022-10-26T00:29:36;13.70;99.90
18884;DHT22;9574;47.282;9.640;2022-10-26T00:32:04;13.60;99.90
18884;DHT22;9574;47.282;9.640;2022-10-26T00:34:31;13.60;99.90
18884;DHT22;9574;47.282;9.640;2022-10-26T00:36:58;13.60;99.90
18884;DHT22;9574;47.282;9.640;2022-10-26T00:39:25;13.60;99.90
18884;DHT22;9574;47.282;9.640;2022-10-26T00:41:52;13.50;99.90
18884;DHT22;9574;47.282;9.640;2022-10-26T00:44:58;13.70;99.90
18884;DHT22;9574;47.282;9.640;2022-10-26T00:47:36;13.80;99.90
18884;DHT22;9574;47.282;9.640;2022-10-26T00:50:08;13.80;99.90
18884;DHT22;9574;47.282;9.640;2022-10-26T00:52:36;13.80;99.90
18884;DHT22;9574;47.282;9.640;2022-10-26T00:55:05;13.90;99.90
18884;DHT22;9574;47.282;9.640;2022-10-26T00:57:32;14.00;99.90
18884;DHT22;9574;47.282;9.640;2022-10-26T01:00:00;14.10;99.90
18884;DHT22;9574;47.282;9.640;2022-10-26T01:02:27;14.40;99.90
18884;DHT22;9574;47.282;9.640;2022-10-26T01:04:56;14.60;99.90
18884;DHT22;9574;47.282;9.640;2022-10-26T01:07:24;14.70;99.90
18884;DHT22;9574;47.282;9.640;2022-10-26T01:09:52;14.60;99.90
18884;DHT22;9574;47.282;9.640;2022-10-26T01:12:20;14.50;99.90
18884;DHT22;9574;47.282;9.640;2022-10-26T01:14:47;14.30;99.90
18884;DHT22;9574;47.282;9.640;2022-10-26T01:17:25;14.20;99.90
18884;DHT22;9574;47.282;9.640;2022-10-26T01:20:18;14.10;99.90
18884;DHT22;9574;47.282;9.640;2022-10-26T01:22:53;14.00;99.90
18884;DHT22;9574;47.282;9.640;2022-10-26T01:25:40;14.00;99.90
18884;DHT22;9574;47.282;9.640;2022-10-26T01:28:27;13.90;99.90
18884;DHT22;9574;47.282;9.640;2022-10-26T01:31:00;13.90;99.90
18884;DHT22;9574;47.282;9.640;2022-10-26T01:33:37;13.80;99.90
18884;DHT22;9574;47.282;9.640;2022-10-26T01:36:11;13.80;99.90
18884;DHT22;9574;47.282;9.640;2022-10-26T01:38:46;13.70;99.90
18884;DHT22;9574;47.282;9.640;2022-10-26T01:41:22;13.60;99.90
18884;DHT22;9574;47.282;9.640;2022-10-26T01:43:54;13.50;99.90
18884;DHT22;9574;47.282;9.640;2022-10-26T01:46:25;13.40;99.90
18884;DHT22;9574;47.282;9.640;2022-10-26T01:48:56;13.40;99.90
18884;DHT22;9574;47.282;9.640;2022-10-26T01:51:25;13.40;99.90
18884;DHT22;9574;47.282;9.640;2022-10-26T01:53:53;13.50;99.90
18884;DHT22;9574;47.282;9.640;2022-10-26T01:56:22;13.40;99.90
18884;DHT22;9574;47.282;9.640;2022-10-26T01:59:11;13.30;99.90
18884;DHT22;9574;47.282;9.640;2022-10-26T02:05:05;13.50;99.90
18884;DHT22;9574;47.282;9.640;2022-10-26T02:07:41;13.50;99.90
18884;DHT22;9574;47.282;9.640;2022-10-26T02:10:18;13.50;99.90
18884;DHT22;9574;47.282;9.640;2022-10-26T02:12:56;13.50;99.90
18884;DHT22;9574;47.282;9.640;2022-10-26T02:15:32;13.40;99.90
18884;DHT22;9574;47.282;9.640;2022-10-26T02:18:04;13.30;99.90
18884;DHT22;9574;47.282;9.640;2022-10-26T02:20:38;13.20;99.90
18884;DHT22;9574;47.282;9.640;2022-10-26T02:23:07;13.20;99.90
18884;DHT22;9574;47.282;9.640;2022-10-26T02:25:40;13.10;99.90
18884;DHT22;9574;47.282;9.640;2022-10-26T02:28:12;13.00;99.90
18884;DHT22;9574;47.282;9.640;2022-10-26T02:30:41;13.10;99.90
18884;DHT22;9574;47.282;9.640;2022-10-26T02:33:12;13.20;99.90
18884;DHT22;9574;47.282;9.640;2022-10-26T02:35:42;13.00;99.90
18884;DHT22;9574;47.282;9.640;2022-10-26T02:38:12;12.80;99.90
18884;DHT22;9574;47.282;9.640;2022-10-26T02:40:41;12.70;99.90
18884;DHT22;9574;47.282;9.640;2022-10-26T02:43:11;12.70;99.90
18884;DHT22;9574;47.282;9.640;2022-10-26T02:45:44;12.70;99.90
18884;DHT22;9574;47.282;9.640;2022-10-26T02:48:13;13.00;99.90
18884;DHT22;9574;47.282;9.640;2022-10-26T02:50:46;13.20;99.90
18884;DHT22;9574;47.282;9.640;2022-10-26T02:53:22;13.20;99.90
18884;DHT22;9574;47.282;9.640;2022-10-26T02:55:50;13.50;99.90
18884;DHT22;9574;47.282;9.640;2022-10-26T02:58:21;13.60;99.90
18884;DHT22;9574;47.282;9.640;2022-10-26T03:00:50;13.60;99.90
18884;DHT22;9574;47.282;9.640;2022-10-26T03:03:18;13.60;99.90
18884;DHT22;9574;47.282;9.640;2022-10-26T03:05:46;13.40;99.90
18884;DHT22;9574;47.282;9.640;2022-10-26T03:08:13;13.30;99.90
18884;DHT22;9574;47.282;9.640;2022-10-26T03:10:41;13.20;99.90
18884;DHT22;9574;47.282;9.640;2022-10-26T03:13:10;13.20;99.90
18884;DHT22;9574;47.282;9.640;2022-10-26T03:15:37;13.20;99.90
18884;DHT22;9574;47.282;9.640;2022-10-26T03:18:04;13.40;99.90
18884;DHT22;9574;47.282;9.640;2022-10-26T03:20:33;13.60;99.90
18884;DHT22;9574;47.282;9.640;2022-10-26T03:23:00;13.80;99.90
18884;DHT22;9574;47.282;9.640;2022-10-26T03:25:27;13.90;99.90
18884;DHT22;9574;47.282;9.640;2022-10-26T03:27:57;14.00;99.90
18884;DHT22;9574;47.282;9.640;2022-10-26T03:30:25;14.10;99.90
18884;DHT22;9574;47.282;9.640;2022-10-26T03:32:52;14.10;99.90
18884;DHT22;9574;47.282;9.640;2022-10-26T03:35:19;14.20;99.90
18884;DHT22;9574;47.282;9.640;2022-10-26T03:37:48;14.30;99.90
18884;DHT22;9574;47.282;9.640;2022-10-26T03:40:15;14.10;99.90
18884;DHT22;9574;47.282;9.640;2022-10-26T03:42:42;14.10;99.90
18884;DHT22;9574;47.282;9.640;2022-10-26T03:45:09;14.10;99.90
18884;DHT22;9574;47.282;9.640;2022-10-26T03:47:42;14.20;99.90
18884;DHT22;9574;47.282;9.640;2022-10-26T03:50:10;14.20;99.90
18884;DHT22;9574;47.282;9.640;2022-10-26T03:52:37;14.10;99.90
18884;DHT22;9574;47.282;9.640;2022-10-26T03:55:07;14.00;99.90
18884;DHT22;9574;47.282;9.640;2022-10-26T03:57:39;14.00;99.90
18884;DHT22;9574;47.282;9.640;2022-10-26T04:00:07;14.10;99.90
18884;DHT22;9574;47.282;9.640;2022-10-26T04:02:34;14.20;99.90
18884;DHT22;9574;47.282;9.640;2022-10-26T04:05:01;14.10;99.90
18884;DHT22;9574;47.282;9.640;2022-10-26T04:07:28;14.00;99.90
18884;DHT22;9574;47.282;9.640;2022-10-26T04:09:55;13.90;99.90
18884;DHT22;9574;47.282;9.640;2022-10-26T04:12:23;14.10;99.90
18884;DHT22;9574;47.282;9.640;2022-10-26T04:14:50;14.30;99.90
18884;DHT22;9574;47.282;9.640;2022-10-26T04:17:17;14.10;99.90
18884;DHT22;9574;47.282;9.640;2022-10-26T04:19:44;13.90;99.90
18884;DHT22;9574;47.282;9.640;2022-10-26T04:22:11;13.70;99.90
18884;DHT22;9574;47.282;9.640;2022-10-26T04:24:38;13.60;99.90
18884;DHT22;9574;47.282;9.640;2022-10-26T04:27:05;13.60;99.90
18884;DHT22;9574;47.282;9.640;2022-10-26T04:29:34;13.70;99.90
18884;DHT22;9574;47.282;9.640;2022-10-26T04:32:01;13.70;99.90
18884;DHT22;9574;47.282;9.640;2022-10-26T04:34:29;13.70;99.90
18884;DHT22;9574;47.282;9.640;2022-10-26T04:36:56;13.50;99.90
18884;DHT22;9574;47.282;9.640;2022-10-26T04:39:24;13.50;99.90
18884;DHT22;9574;47.282;9.640;2022-10-26T04:41:53;13.50;99.90
18884;DHT22;9574;47.282;9.640;2022-10-26T04:44:20;13.70;99.90
18884;DHT22;9574;47.282;9.640;2022-10-26T04:46:49;13.70;99.90
18884;DHT22;9574;47.282;9.640;2022-10-26T04:49:17;13.70;99.90
18884;DHT22;9574;47.282;9.640;2022-10-26T04:51:44;13.80;99.90
18884;DHT22;9574;47.282;9.640;2022-10-26T04:54:11;13.90;99.90
18884;DHT22;9574;47.282;9.640;2022-10-26T04:56:38;14.00;99.90
18884;DHT22;9574;47.282;9.640;2022-10-26T04:59:05;14.10;99.90
18884;DHT22;9574;47.282;9.640;2022-10-26T05:01:32;14.00;99.90
18884;DHT22;9574;47.282;9.640;2022-10-26T05:04:01;13.80;99.90
18884;DHT22;9574;47.282;9.640;2022-10-26T05:06:28;13.70;99.90
18884;DHT22;9574;47.282;9.640;2022-10-26T05:08:55;13.60;99.90
18884;DHT22;9574;47.282;9.640;2022-10-26T05:11:22;13.60;99.90
18884;DHT22;9574;47.282;9.640;2022-10-26T05:13:49;13.60;99.90
18884;DHT22;9574;47.282;9.640;2022-10-26T05:16:16;13.80;99.90
18884;DHT22;9574;47.282;9.640;2022-10-26T05:18:46;13.80;99.90
18884;DHT22;9574;47.282;9.640;2022-10-26T05:21:14;13.90;99.90
18884;DHT22;9574;47.282;9.640;2022-10-26T05:23:44;13.90;99.90
18884;DHT22;9574;47.282;9.640;2022-10-26T05:26:13;13.90;99.90
18884;DHT22;9574;47.282;9.640;2022-10-26T05:28:40;13.90;99.90
18884;DHT22;9574;47.282;9.640;2022-10-26T05:31:07;14.00;99.90
18884;DHT22;9574;47.282;9.640;2022-10-26T05:33:34;14.10;99.90
18884;DHT22;9574;47.282;9.640;2022-10-26T05:36:01;14.10;99.90
18884;DHT22;9574;47.282;9.640;2022-10-26T05:38:29;14.20;99.90
18884;DHT22;9574;47.282;9.640;2022-10-26T05:40:57;14.20;99.90
18884;DHT22;9574;47.282;9.640;2022-10-26T05:43:25;14.30;99.90
18884;DHT22;9574;47.282;9.640;2022-10-26T05:45:53;14.20;99.90
18884;DHT22;9574;47.282;9.640;2022-10-26T05:48:20;14.20;99.90
18884;DHT22;9574;47.282;9.640;2022-10-26T05:50:58;14.20;99.90
18884;DHT22;9574;47.282;9.640;2022-10-26T05:53:26;14.30;99.90
18884;DHT22;9574;47.282;9.640;2022-10-26T05:55:55;14.20;99.90
18884;DHT22;9574;47.282;9.640;2022-10-26T05:58:23;14.10;99.90
18884;DHT22;9574;47.282;9.640;2022-10-26T06:01:00;13.90;99.90
18884;DHT22;9574;47.282;9.640;2022-10-26T06:03:42;13.90;99.90
18884;DHT22;9574;47.282;9.640;2022-10-26T06:06:12;13.80;99.90
18884;DHT22;9574;47.282;9.640;2022-10-26T06:08:39;13.70;99.90
18884;DHT22;9574;47.282;9.640;2022-10-26T06:11:10;13.70;99.90
18884;DHT22;9574;47.282;9.640;2022-10-26T06:13:37;13.60;99.90
18884;DHT22;9574;47.282;9.640;2022-10-26T06:16:22;13.60;99.90
18884;DHT22;9574;47.282;9.640;2022-10-26T06:19:00;13.50;99.90
18884;DHT22;9574;47.282;9.640;2022-10-26T06:21:42;13.40;99.90
18884;DHT22;9574;47.282;9.640;2022-10-26T06:24:18;13.30;99.90
18884;DHT22;9574;47.282;9.640;2022-10-26T06:26:54;13.20;99.90
18884;DHT22;9574;47.282;9.640;2022-10-26T06:29:33;13.30;99.90
18884;DHT22;9574;47.282;9.640;2022-10-26T06:32:03;13.40;99.90
18884;DHT22;9574;47.282;9.640;2022-10-26T06:34:33;13.50;99.90
18884;DHT22;9574;47.282;9.640;2022-10-26T06:37:01;13.50;99.90
18884;DHT22;9574;47.282;9.640;2022-10-26T06:39:34;13.70;99.90
18884;DHT22;9574;47.282;9.640;2022-10-26T06:42:03;13.90;99.90
18884;DHT22;9574;47.282;9.640;2022-10-26T06:44:31;13.90;99.90
18884;DHT22;9574;47.282;9.640;2022-10-26T06:47:03;13.90;99.90
18884;DHT22;9574;47.282;9.640;2022-10-26T06:49:35;13.90;99.90
18884;DHT22;9574;47.282;9.640;2022-10-26T06:52:09;14.00;99.90
18884;DHT22;9574;47.282;9.640;2022-10-26T06:54:46;14.10;99.90
18884;DHT22;9574;47.282;9.640;2022-10-26T06:57:16;14.30;99.90
18884;DHT22;9574;47.282;9.640;2022-10-26T06:59:48;14.40;99.90
18884;DHT22;9574;47.282;9.640;2022-10-26T07:02:16;14.50;99.90
18884;DHT22;9574;47.282;9.640;2022-10-26T07:04:43;14.50;99.90
18884;DHT22;9574;47.282;9.640;2022-10-26T07:07:12;14.60;99.90
18884;DHT22;9574;47.282;9.640;2022-10-26T07:09:40;14.50;99.90
18884;DHT22;9574;47.282;9.640;2022-10-26T07:12:07;14.50;99.90
18884;DHT22;9574;47.282;9.640;2022-10-26T07:14:35;14.50;99.90
18884;DHT22;9574;47.282;9.640;2022-10-26T07:17:02;14.40;99.90
18884;DHT22;9574;47.282;9.640;2022-10-26T07:19:29;14.40;99.90
18884;DHT22;9574;47.282;9.640;2022-10-26T07:21:56;14.30;99.90
18884;DHT22;9574;47.282;9.640;2022-10-26T07:24:24;14.20;99.90
18884;DHT22;9574;47.282;9.640;2022-10-26T07:26:53;14.10;99.90
18884;DHT22;9574;47.282;9.640;2022-10-26T07:29:20;14.30;99.90
18884;DHT22;9574;47.282;9.640;2022-10-26T07:31:49;14.30;99.90
18884;DHT22;9574;47.282;9.640;2022-10-26T07:34:16;14.40;99.90
18884;DHT22;9574;47.282;9.640;2022-10-26T07:36:43;14.40;99.90
18884;DHT22;9574;47.282;9.640;2022-10-26T07:39:10;14.50;99.90
18884;DHT22;9574;47.282;9.640;2022-10-26T07:41:37;14.50;99.90
18884;DHT22;9574;47.282;9.640;2022-10-26T07:44:04;14.30;99.90
18884;DHT22;9574;47.282;9.640;2022-10-26T07:46:31;14.20;99.90
18884;DHT22;9574;47.282;9.640;2022-10-26T07:48:59;14.10;99.90
18884;DHT22;9574;47.282;9.640;2022-10-26T07:51:26;14.10;99.90
18884;DHT22;9574;47.282;9.640;2022-10-26T07:53:53;14.00;99.90
18884;DHT22;9574;47.282;9.640;2022-10-26T07:56:20;13.90;99.90
18884;DHT22;9574;47.282;9.640;2022-10-26T07:58:47;13.80;99.90
18884;DHT22;9574;47.282;9.640;2022-10-26T08:01:15;13.80;99.90
18884;DHT22;9574;47.282;9.640;2022-10-26T08:03:42;13.90;99.90
18884;DHT22;9574;47.282;9.640;2022-10-26T08:06:10;14.00;99.90
18884;DHT22;9574;47.282;9.640;2022-10-26T08:08:37;14.10;99.90
18884;DHT22;9574;47.282;9.640;2022-10-26T08:11:04;14.20;99.90
18884;DHT22;9574;47.282;9.640;2022-10-26T08:13:31;14.40;99.90
18884;DHT22;9574;47.282;9.640;2022-10-26T08:16:01;14.50;99.90
18884;DHT22;9574;47.282;9.640;2022-10-26T08:18:28;14.60;99.90
18884;DHT22;9574;47.282;9.640;2022-10-26T08:21:00;14.60;99.90
18884;DHT22;9574;47.282;9.640;2022-10-26T08:23:29;14.60;99.90
18884;DHT22;9574;47.282;9.640;2022-10-26T08:25:57;14.60;99.90
18884;DHT22;9574;47.282;9.640;2022-10-26T08:28:25;14.40;99.90
18884;DHT22;9574;47.282;9.640;2022-10-26T08:30:52;14.40;99.90
18884;DHT22;9574;47.282;9.640;2022-10-26T08:33:19;14.30;99.90
18884;DHT22;9574;47.282;9.640;2022-10-26T08:35:47;14.30;99.90
18884;DHT22;9574;47.282;9.640;2022-10-26T08:38:14;14.30;99.90
18884;DHT22;9574;47.282;9.640;2022-10-26T08:40:45;14.40;99.90
18884;DHT22;9574;47.282;9.640;2022-10-26T08:43:16;14.50;99.90
18884;DHT22;9574;47.282;9.640;2022-10-26T08:45:49;14.60;99.90
18884;DHT22;9574;47.282;9.640;2022-10-26T08:48:22;14.70;99.90
18884;DHT22;9574;47.282;9.640;2022-10-26T08:50:52;14.70;99.90
18884;DHT22;9574;47.282;9.640;2022-10-26T08:53:25;14.80;99.90
18884;DHT22;9574;47.282;9.640;2022-10-26T08:55:58;14.90;99.90
18884;DHT22;9574;47.282;9.640;2022-10-26T08:58:28;14.90;99.90
18884;DHT22;9574;47.282;9.640;2022-10-26T09:00:57;14.90;99.90
18884;DHT22;9574;47.282;9.640;2022-10-26T09:03:25;15.10;99.90
18884;DHT22;9574;47.282;9.640;2022-10-26T09:06:08;15.50;99.90
18884;DHT22;9574;47.282;9.640;2022-10-26T09:08:49;16.00;99.90
18884;DHT22;9574;47.282;9.640;2022-10-26T09:11:27;16.30;99.90
18884;DHT22;9574;47.282;9.640;2022-10-26T09:14:03;16.50;99.90
18884;DHT22;9574;47.282;9.640;2022-10-26T09:16:36;16.50;99.90
18884;DHT22;9574;47.282;9.640;2022-10-26T09:19:20;16.20;99.90
18884;DHT22;9574;47.282;9.640;2022-10-26T09:21:52;16.10;99.90
18884;DHT22;9574;47.282;9.640;2022-10-26T09:24:29;15.90;99.90
18884;DHT22;9574;47.282;9.640;2022-10-26T09:27:04;15.80;99.90
18884;DHT22;9574;47.282;9.640;2022-10-26T09:29:37;16.00;99.90
18884;DHT22;9574;47.282;9.640;2022-10-26T09:32:09;16.10;99.90
18884;DHT22;9574;47.282;9.640;2022-10-26T09:34:43;15.90;99.90
18884;DHT22;9574;47.282;9.640;2022-10-26T09:37:14;15.80;99.90
18884;DHT22;9574;47.282;9.640;2022-10-26T09:39:51;15.90;99.90
18884;DHT22;9574;47.282;9.640;2022-10-26T09:42:27;16.00;99.90
18884;DHT22;9574;47.282;9.640;2022-10-26T09:44:57;16.00;99.90
18884;DHT22;9574;47.282;9.640;2022-10-26T09:47:30;15.90;99.90
18884;DHT22;9574;47.282;9.640;2022-10-26T09:50:04;15.90;99.90
18884;DHT22;9574;47.282;9.640;2022-10-26T09:52:32;15.90;99.90
18884;DHT22;9574;47.282;9.640;2022-10-26T09:54:59;16.10;99.90
18884;DHT22;9574;47.282;9.640;2022-10-26T09:57:28;16.40;99.90
18884;DHT22;9574;47.282;9.640;2022-10-26T09:59:56;16.50;99.90
18884;DHT22;9574;47.282;9.640;2022-10-26T10:02:37;16.60;99.90
18884;DHT22;9574;47.282;9.640;2022-10-26T10:05:29;16.70;99.90
18884;DHT22;9574;47.282;9.640;2022-10-26T10:08:17;16.70;99.90
18884;DHT22;9574;47.282;9.640;2022-10-26T10:10:59;17.00;99.90
18884;DHT22;9574;47.282;9.640;2022-10-26T10:13:29;17.20;99.90
18884;DHT22;9574;47.282;9.640;2022-10-26T10:16:02;17.10;99.90
18884;DHT22;9574;47.282;9.640;2022-10-26T10:18:30;17.10;99.90
18884;DHT22;9574;47.282;9.640;2022-10-26T10:20:58;17.10;99.90
18884;DHT22;9574;47.282;9.640;2022-10-26T10:23:31;17.40;99.90
18884;DHT22;9574;47.282;9.640;2022-10-26T10:26:07;18.00;99.90
18884;DHT22;9574;47.282;9.640;2022-10-26T10:28:37;18.30;99.90
18884;DHT22;9574;47.282;9.640;2022-10-26T10:31:18;18.70;99.90
18884;DHT22;9574;47.282;9.640;2022-10-26T10:33:45;19.10;99.90
18884;DHT22;9574;47.282;9.640;2022-10-26T10:36:15;19.50;99.90
18884;DHT22;9574;47.282;9.640;2022-10-26T10:38:45;20.00;99.90
18884;DHT22;9574;47.282;9.640;2022-10-26T10:41:18;19.70;99.90
18884;DHT22;9574;47.282;9.640;2022-10-26T10:43:49;19.40;99.90
18884;DHT22;9574;47.282;9.640;2022-10-26T10:46:19;19.30;99.90
18884;DHT22;9574;47.282;9.640;2022-10-26T10:48:49;19.30;99.90
18884;DHT22;9574;47.282;9.640;2022-10-26T10:51:19;19.30;99.90
18884;DHT22;9574;47.282;9.640;2022-10-26T10:53:49;19.40;99.90
18884;DHT22;9574;47.282;9.640;2022-10-26T10:56:30;19.30;99.90
18884;DHT22;9574;47.282;9.640;2022-10-26T10:59:14;18.90;99.90
18884;DHT22;9574;47.282;9.640;2022-10-26T11:01:48;18.50;99.90
18884;DHT22;9574;47.282;9.640;2022-10-26T11:04:35;18.20;99.90
18884;DHT22;9574;47.282;9.640;2022-10-26T11:07:09;17.90;99.90
18884;DHT22;9574;47.282;9.640;2022-10-26T11:09:40;17.70;99.90
18884;DHT22;9574;47.282;9.640;2022-10-26T11:12:14;17.50;99.90
18884;DHT22;9574;47.282;9.640;2022-10-26T11:14:45;17.40;99.90
18884;DHT22;9574;47.282;9.640;2022-10-26T11:17:18;17.30;99.90
18884;DHT22;9574;47.282;9.640;2022-10-26T11:19:48;17.30;99.90
18884;DHT22;9574;47.282;9.640;2022-10-26T11:22:20;17.30;99.90
18884;DHT22;9574;47.282;9.640;2022-10-26T11:24:49;17.20;99.90
18884;DHT22;9574;47.282;9.640;2022-10-26T11:27:26;17.20;99.90
18884;DHT22;9574;47.282;9.640;2022-10-26T11:30:00;17.30;99.90
18884;DHT22;9574;47.282;9.640;2022-10-26T11:32:33;17.50;99.90
18884;DHT22;9574;47.282;9.640;2022-10-26T11:35:05;17.70;99.90
18884;DHT22;9574;47.282;9.640;2022-10-26T11:37:43;17.90;99.90
18884;DHT22;9574;47.282;9.640;2022-10-26T11:40:21;18.10;99.90
18884;DHT22;9574;47.282;9.640;2022-10-26T11:42:56;18.20;99.90
18884;DHT22;9574;47.282;9.640;2022-10-26T11:45:33;18.20;99.90
18884;DHT22;9574;47.282;9.640;2022-10-26T11:48:05;18.20;99.90
18884;DHT22;9574;47.282;9.640;2022-10-26T11:50:40;18.20;99.90
18884;DHT22;9574;47.282;9.640;2022-10-26T11:53:11;18.10;99.90
18884;DHT22;9574;47.282;9.640;2022-10-26T11:55:40;18.00;99.90
18884;DHT22;9574;47.282;9.640;2022-10-26T11:58:08;17.90;99.90
18884;DHT22;9574;47.282;9.640;2022-10-26T12:00:43;17.90;99.90
18884;DHT22;9574;47.282;9.640;2022-10-26T12:03:15;17.90;99.90
18884;DHT22;9574;47.282;9.640;2022-10-26T12:05:47;17.90;99.90
18884;DHT22;9574;47.282;9.640;2022-10-26T12:08:19;18.00;99.90
18884;DHT22;9574;47.282;9.640;2022-10-26T12:10:51;17.90;99.90
18884;DHT22;9574;47.282;9.640;2022-10-26T12:13:28;17.90;99.90
18884;DHT22;9574;47.282;9.640;2022-10-26T12:16:04;18.00;99.90
18884;DHT22;9574;47.282;9.640;2022-10-26T12:18:38;18.00;99.90
18884;DHT22;9574;47.282;9.640;2022-10-26T12:21:08;18.10;99.90
18884;DHT22;9574;47.282;9.640;2022-10-26T12:23:37;18.50;99.90
18884;DHT22;9574;47.282;9.640;2022-10-26T12:29:39;19.30;99.90
18884;DHT22;9574;47.282;9.640;2022-10-26T12:35:33;19.90;99.90
18884;DHT22;9574;47.282;9.640;2022-10-26T12:38:25;20.10;99.90
18884;DHT22;9574;47.282;9.640;2022-10-26T12:41:17;20.70;99.90
18884;DHT22;9574;47.282;9.640;2022-10-26T12:43:44;21.10;99.90
18884;DHT22;9574;47.282;9.640;2022-10-26T12:46:39;21.30;99.90
18884;DHT22;9574;47.282;9.640;2022-10-26T12:52:29;22.00;99.90
18884;DHT22;9574;47.282;9.640;2022-10-26T12:55:24;21.90;99.90
18884;DHT22;9574;47.282;9.640;2022-10-26T13:00:47;22.30;99.90
18884;DHT22;9574;47.282;9.640;2022-10-26T13:03:25;22.00;99.90
18884;DHT22;9574;47.282;9.640;2022-10-26T13:06:25;22.20;99.90
18884;DHT22;9574;47.282;9.640;2022-10-26T13:09:06;22.10;99.90
18884;DHT22;9574;47.282;9.640;2022-10-26T13:11:35;22.10;99.90
18884;DHT22;9574;47.282;9.640;2022-10-26T13:14:20;22.20;99.90
18884;DHT22;9574;47.282;9.640;2022-10-26T13:16:48;22.00;99.90
18884;DHT22;9574;47.282;9.640;2022-10-26T13:19:26;21.80;99.90
18884;DHT22;9574;47.282;9.640;2022-10-26T13:21:58;22.20;99.90
18884;DHT22;9574;47.282;9.640;2022-10-26T13:24:28;22.50;99.90
18884;DHT22;9574;47.282;9.640;2022-10-26T13:27:29;22.70;99.90
18884;DHT22;9574;47.282;9.640;2022-10-26T13:30:35;22.90;99.90
18884;DHT22;9574;47.282;9.640;2022-10-26T13:33:10;22.60;99.90
18884;DHT22;9574;47.282;9.640;2022-10-26T13:35:41;22.80;99.90
18884;DHT22;9574;47.282;9.640;2022-10-26T13:38:10;22.80;99.90
18884;DHT22;9574;47.282;9.640;2022-10-26T13:40:39;22.70;99.90
18884;DHT22;9574;47.282;9.640;2022-10-26T13:43:13;22.80;99.90
18884;DHT22;9574;47.282;9.640;2022-10-26T13:45:47;22.70;99.90
18884;DHT22;9574;47.282;9.640;2022-10-26T13:48:17;22.80;99.90
18884;DHT22;9574;47.282;9.640;2022-10-26T13:50:48;22.80;99.90
18884;DHT22;9574;47.282;9.640;2022-10-26T13:53:20;22.80;99.90
18884;DHT22;9574;47.282;9.640;2022-10-26T13:55:53;22.90;99.90
18884;DHT22;9574;47.282;9.640;2022-10-26T13:58:24;22.90;99.90
18884;DHT22;9574;47.282;9.640;2022-10-26T14:01:12;23.00;99.90
18884;DHT22;9574;47.282;9.640;2022-10-26T14:03:41;23.10;99.90
18884;DHT22;9574;47.282;9.640;2022-10-26T14:06:14;23.20;99.90
18884;DHT22;9574;47.282;9.640;2022-10-26T14:08:42;23.30;99.90
18884;DHT22;9574;47.282;9.640;2022-10-26T14:11:16;23.40;99.90
18884;DHT22;9574;47.282;9.640;2022-10-26T14:13:44;23.40;99.90
18884;DHT22;9574;47.282;9.640;2022-10-26T14:16:14;23.30;99.90
18884;DHT22;9574;47.282;9.640;2022-10-26T14:18:44;23.30;99.90
18884;DHT22;9574;47.282;9.640;2022-10-26T14:21:14;23.30;99.90
18884;DHT22;9574;47.282;9.640;2022-10-26T14:23:47;23.30;99.90
18884;DHT22;9574;47.282;9.640;2022-10-26T14:26:23;23.30;99.90
18884;DHT22;9574;47.282;9.640;2022-10-26T14:28:52;23.40;99.90
18884;DHT22;9574;47.282;9.640;2022-10-26T14:31:25;23.40;99.90
18884;DHT22;9574;47.282;9.640;2022-10-26T14:33:54;23.30;99.90
18884;DHT22;9574;47.282;9.640;2022-10-26T14:36:25;23.20;99.90
18884;DHT22;9574;47.282;9.640;2022-10-26T14:38:57;23.10;99.90
18884;DHT22;9574;47.282;9.640;2022-10-26T14:41:27;23.20;99.90
18884;DHT22;9574;47.282;9.640;2022-10-26T14:43:56;23.20;99.90
18884;DHT22;9574;47.282;9.640;2022-10-26T14:46:31;23.20;99.90
18884;DHT22;9574;47.282;9.640;2022-10-26T14:49:00;23.20;99.90
18884;DHT22;9574;47.282;9.640;2022-10-26T14:51:29;23.20;99.90
18884;DHT22;9574;47.282;9.640;2022-10-26T14:53:57;23.10;99.90
18884;DHT22;9574;47.282;9.640;2022-10-26T14:56:30;23.10;99.90
18884;DHT22;9574;47.282;9.640;2022-10-26T14:58:57;23.00;99.90
18884;DHT22;9574;47.282;9.640;2022-10-26T15:01:30;23.00;99.90
18884;DHT22;9574;47.282;9.640;2022-10-26T15:03:59;23.00;99.90
18884;DHT22;9574;47.282;9.640;2022-10-26T15:06:41;22.90;99.90
18884;DHT22;9574;47.282;9.640;2022-10-26T15:09:37;22.80;99.90
18884;DHT22;9574;47.282;9.640;2022-10-26T15:12:06;22.60;99.90
18884;DHT22;9574;47.282;9.640;2022-10-26T15:14:43;22.60;99.90
18884;DHT22;9574;47.282;9.640;2022-10-26T15:17:20;22.40;99.90
18884;DHT22;9574;47.282;9.640;2022-10-26T15:19:48;22.40;99.90
18884;DHT22;9574;47.282;9.640;2022-10-26T15:22:21;22.30;99.90
18884;DHT22;9574;47.282;9.640;2022-10-26T15:24:51;22.20;99.90
18884;DHT22;9574;47.282;9.640;2022-10-26T15:27:21;22.10;99.90
18884;DHT22;9574;47.282;9.640;2022-10-26T15:29:50;22.00;99.90
18884;DHT22;9574;47.282;9.640;2022-10-26T15:32:26;21.80;99.90
18884;DHT22;9574;47.282;9.640;2022-10-26T15:37:54;21.50;99.90
18884;DHT22;9574;47.282;9.640;2022-10-26T15:40:24;21.40;99.90
18884;DHT22;9574;47.282;9.640;2022-10-26T15:42:53;21.20;99.90
18884;DHT22;9574;47.282;9.640;2022-10-26T15:45:22;21.00;99.90
18884;DHT22;9574;47.282;9.640;2022-10-26T15:47:51;20.70;99.90
18884;DHT22;9574;47.282;9.640;2022-10-26T15:50:20;20.20;99.90
18884;DHT22;9574;47.282;9.640;2022-10-26T15:52:48;19.60;99.90
18884;DHT22;9574;47.282;9.640;2022-10-26T15:55:15;19.30;99.90
18884;DHT22;9574;47.282;9.640;2022-10-26T15:57:42;19.10;99.90
18884;DHT22;9574;47.282;9.640;2022-10-26T16:00:15;19.00;99.90
18884;DHT22;9574;47.282;9.640;2022-10-26T16:02:43;18.80;99.90
18884;DHT22;9574;47.282;9.640;2022-10-26T16:05:11;18.50;99.90
18884;DHT22;9574;47.282;9.640;2022-10-26T16:07:39;18.30;99.90
18884;DHT22;9574;47.282;9.640;2022-10-26T16:10:12;18.00;99.90
18884;DHT22;9574;47.282;9.640;2022-10-26T16:12:40;17.90;99.90
18884;DHT22;9574;47.282;9.640;2022-10-26T16:15:19;17.80;99.90
18884;DHT22;9574;47.282;9.640;2022-10-26T16:17:47;17.60;99.90
18884;DHT22;9574;47.282;9.640;2022-10-26T16:20:16;17.50;99.90
18884;DHT22;9574;47.282;9.640;2022-10-26T16:22:46;17.40;99.90
18884;DHT22;9574;47.282;9.640;2022-10-26T16:25:14;17.30;99.90
18884;DHT22;9574;47.282;9.640;2022-10-26T16:27:42;17.20;99.90
18884;DHT22;9574;47.282;9.640;2022-10-26T16:30:10;17.10;99.90